Time;durP1;ratioP1;P1;durP2;ratioP2;P2;SDS_P1;SDS_P2;PMS_P1;PMS_P2;Temp;Humidity;BMP_temperature;BMP_pressure;BME280_temperature;BME280_humidity;BME280_pressure;Samples;Min_cycle;Max_cycle;Signal;HPM_P1;HPM_P2
2024/04/24 00:01:28;;;;;;;3.40;2.00;;;23.60;99.90;;;;;;5381574;26;19997;-50
2024/04/24 00:03:54;;;;;;;3.22;2.38;;;23.60;99.90;;;;;;5381475;26;20000;-50
2024/04/24 00:06:21;;;;;;;4.93;2.65;;;23.60;99.90;;;;;;5381730;26;19996;-50
2024/04/24 00:08:47;;;;;;;2.88;2.33;;;23.50;99.90;;;;;;5381212;26;20011;-50
2024/04/24 00:11:20;;;;;;;3.60;2.13;;;23.60;99.90;;;;;;5379260;26;20675;-50
2024/04/24 00:13:46;;;;;;;3.45;2.42;;;23.60;99.90;;;;;;5381232;26;20000;-50
2024/04/24 00:16:12;;;;;;;4.72;2.05;;;23.50;99.90;;;;;;5381164;26;20069;-50
2024/04/24 00:18:37;;;;;;;5.18;2.55;;;23.50;99.90;;;;;;5381024;26;20398;-50
2024/04/24 00:21:03;;;;;;;5.65;2.67;;;23.60;99.90;;;;;;5408971;26;20000;-51
2024/04/24 00:23:29;;;;;;;3.38;2.50;;;23.50;99.90;;;;;;5381103;26;20008;-49
2024/04/24 00:25:56;;;;;;;4.35;2.25;;;23.60;99.90;;;;;;5381038;26;20011;-50
2024/04/24 00:28:22;;;;;;;4.85;2.42;;;23.50;99.90;;;;;;5379522;26;20000;-50
2024/04/24 00:30:48;;;;;;;2.67;1.80;;;23.50;99.90;;;;;;5381688;26;20011;-50
2024/04/24 00:33:14;;;;;;;4.40;2.50;;;23.50;99.90;;;;;;5380963;26;20078;-51
2024/04/24 00:35:39;;;;;;;4.43;2.30;;;23.50;99.90;;;;;;5379140;26;20081;-50
2024/04/24 00:38:05;;;;;;;4.88;2.25;;;23.50;99.90;;;;;;5379522;26;20006;-50
2024/04/24 00:40:36;;;;;;;4.13;2.50;;;23.50;99.90;;;;;;5380924;26;20006;-50
2024/04/24 00:43:02;;;;;;;3.10;1.95;;;23.50;99.90;;;;;;5380928;26;20368;-50
2024/04/24 00:45:28;;;;;;;3.92;2.10;;;23.50;99.90;;;;;;5368602;26;20000;-51
2024/04/24 00:47:55;;;;;;;3.22;2.08;;;23.50;99.90;;;;;;5355704;26;20019;-51
2024/04/24 00:50:23;;;;;;;4.55;2.22;;;23.50;99.90;;;;;;5351573;26;19997;-50
2024/04/24 00:52:49;;;;;;;;;;;23.50;99.90;;;;;;5366444;26;20447;-51
2024/04/24 00:55:15;;;;;;;5.35;2.50;;;23.50;99.90;;;;;;5379329;26;19932;-49
2024/04/24 00:57:41;;;;;;;3.50;2.10;;;23.50;99.90;;;;;;5379392;26;20004;-50
2024/04/24 01:00:33;;;;;;;3.35;2.05;;;23.50;99.90;;;;;;5372630;26;20041;-50
2024/04/24 01:02:59;;;;;;;3.72;2.28;;;23.50;99.90;;;;;;5356268;26;20033;-51
2024/04/24 01:05:25;;;;;;;4.37;2.37;;;23.50;99.90;;;;;;5379689;26;20019;-51
2024/04/24 01:07:51;;;;;;;4.03;1.65;;;23.50;99.90;;;;;;5379458;26;20340;-51
2024/04/24 01:10:18;;;;;;;3.65;2.10;;;23.50;99.90;;;;;;5379697;26;20024;-52
2024/04/24 01:12:44;;;;;;;4.17;2.57;;;23.50;99.90;;;;;;5376250;26;20015;-52
2024/04/24 01:15:10;;;;;;;5.18;2.55;;;23.50;99.90;;;;;;5376590;26;19999;-52
2024/04/24 01:17:38;;;;;;;3.17;1.70;;;23.50;99.90;;;;;;5376607;26;20447;-52
2024/04/24 01:20:10;;;;;;;3.78;2.30;;;23.40;99.90;;;;;;5376476;26;20004;-52
2024/04/24 01:22:48;;;;;;;5.40;2.10;;;23.40;99.90;;;;;;5376397;26;20031;-51
2024/04/24 01:25:26;;;;;;;3.55;2.35;;;23.40;99.90;;;;;;5375985;26;20468;-52
2024/04/24 01:27:52;;;;;;;6.47;2.28;;;23.40;99.90;;;;;;5376743;26;20000;-52
2024/04/24 01:30:18;;;;;;;3.28;2.33;;;23.40;99.90;;;;;;5379833;26;20011;-51
2024/04/24 01:32:44;;;;;;;3.25;2.00;;;23.40;99.90;;;;;;5379693;26;20332;-52
2024/04/24 01:35:09;;;;;;;2.83;2.13;;;23.40;99.90;;;;;;5379947;26;20000;-52
2024/04/24 01:37:36;;;;;;;4.80;2.10;;;23.40;99.90;;;;;;5379493;26;20085;-52
2024/04/24 01:40:02;;;;;;;4.65;2.15;;;23.40;99.90;;;;;;5379490;26;19997;-52
2024/04/24 01:42:28;;;;;;;3.58;2.00;;;23.40;99.90;;;;;;5379734;26;20314;-52
2024/04/24 01:44:53;;;;;;;3.47;1.80;;;23.40;99.90;;;;;;5379585;26;20009;-52
2024/04/24 01:47:19;;;;;;;2.30;1.95;;;23.40;99.90;;;;;;5379422;26;19996;-52
2024/04/24 01:49:45;;;;;;;2.67;1.83;;;23.40;99.90;;;;;;5379789;26;20000;-52
2024/04/24 01:52:11;;;;;;;6.18;2.55;;;23.40;99.90;;;;;;5383210;26;19996;-52
2024/04/24 01:54:36;;;;;;;2.92;1.90;;;23.40;99.90;;;;;;5383066;26;20120;-52
2024/04/24 01:57:02;;;;;;;4.22;2.28;;;23.40;99.90;;;;;;5383059;26;19996;-52
2024/04/24 01:59:28;;;;;;;4.72;2.10;;;23.40;99.90;;;;;;5381007;26;20004;-52
2024/04/24 02:01:54;;;;;;;4.32;2.28;;;23.30;99.90;;;;;;5395649;21;20023;-50
2024/04/24 02:04:19;;;;;;;3.72;2.15;;;23.40;99.90;;;;;;5383168;26;20320;-51
2024/04/24 02:06:45;;;;;;;5.13;2.25;;;23.40;99.90;;;;;;5383107;26;20011;-51
2024/04/24 02:09:11;;;;;;;4.15;2.15;;;23.40;99.90;;;;;;5383246;26;19996;-51
2024/04/24 02:11:37;;;;;;;3.63;2.17;;;23.30;99.90;;;;;;5382974;26;20010;-51
2024/04/24 02:14:02;;;;;;;3.17;1.70;;;23.30;99.90;;;;;;5382916;26;19992;-51
2024/04/24 02:16:28;;;;;;;2.90;1.85;;;23.40;99.90;;;;;;5383130;26;19992;-50
2024/04/24 02:18:54;;;;;;;6.68;2.42;;;23.30;99.90;;;;;;5383023;26;20061;-51
2024/04/24 02:21:20;;;;;;;4.85;2.20;;;23.30;99.90;;;;;;5382836;26;20000;-50
2024/04/24 02:23:45;;;;;;;3.00;2.20;;;23.30;99.90;;;;;;5380971;26;19996;-50
2024/04/24 02:26:11;;;;;;;3.42;2.33;;;23.40;99.90;;;;;;5410860;26;19992;-50
2024/04/24 02:28:37;;;;;;;5.18;2.38;;;23.30;99.90;;;;;;5382934;26;20432;-50
2024/04/24 02:31:03;;;;;;;4.78;2.28;;;23.30;99.90;;;;;;5380879;26;20007;-51
2024/04/24 02:33:29;;;;;;;2.13;1.80;;;23.30;99.90;;;;;;5382707;26;20007;-50
2024/04/24 02:35:54;;;;;;;3.78;2.00;;;23.30;99.90;;;;;;5382413;26;19996;-50
2024/04/24 02:38:20;;;;;;;3.00;2.17;;;23.30;99.90;;;;;;5382529;26;20000;-50
2024/04/24 02:40:46;;;;;;;2.83;2.08;;;23.30;99.90;;;;;;5382676;26;20395;-51
2024/04/24 02:43:12;;;;;;;4.05;2.63;;;23.30;99.90;;;;;;5382660;26;19992;-51
2024/04/24 02:45:38;;;;;;;2.70;2.28;;;23.30;99.90;;;;;;5382204;26;19992;-51
2024/04/24 02:48:04;;;;;;;3.83;2.00;;;23.20;99.90;;;;;;5382687;26;20006;-51
2024/04/24 02:50:30;;;;;;;3.20;1.85;;;23.30;99.90;;;;;;5410069;26;19992;-51
2024/04/24 02:52:56;;;;;;;3.42;2.00;;;23.30;99.90;;;;;;5382461;26;20440;-51
2024/04/24 02:55:22;;;;;;;3.97;2.60;;;23.30;99.90;;;;;;5382416;26;19996;-50
2024/04/24 02:57:48;;;;;;;4.80;2.45;;;23.20;99.90;;;;;;5382273;26;20007;-50
2024/04/24 03:00:17;;;;;;;4.13;2.42;;;23.20;99.90;;;;;;5381684;26;19992;-50
2024/04/24 03:02:42;;;;;;;4.65;2.22;;;23.20;99.90;;;;;;5380521;26;20000;-51
2024/04/24 03:05:08;;;;;;;4.63;2.58;;;23.20;99.90;;;;;;5382199;26;20453;-50
2024/04/24 03:07:36;;;;;;;2.58;1.88;;;23.20;99.90;;;;;;5382363;26;20000;-51
2024/04/24 03:10:02;;;;;;;3.70;2.00;;;23.20;99.90;;;;;;5381999;26;19996;-53
2024/04/24 03:12:28;;;;;;;2.83;2.10;;;23.20;99.90;;;;;;5382023;26;20011;-50
2024/04/24 03:14:54;;;;;;;3.80;2.40;;;23.20;99.90;;;;;;5409732;26;20410;-50
2024/04/24 03:17:19;;;;;;;3.15;2.22;;;23.20;99.90;;;;;;5382259;26;20000;-51
2024/04/24 03:19:45;;;;;;;3.40;1.90;;;23.20;99.90;;;;;;5382178;26;20134;-50
2024/04/24 03:22:13;;;;;;;3.40;2.00;;;23.20;99.90;;;;;;5381907;26;20011;-50
2024/04/24 03:24:39;;;;;;;4.25;2.58;;;23.20;99.90;;;;;;5381990;26;20000;-50
2024/04/24 03:27:05;;;;;;;2.53;1.98;;;23.20;99.90;;;;;;5381992;26;20011;-50
2024/04/24 03:29:30;;;;;;;5.45;2.50;;;23.20;99.90;;;;;;5380429;26;19996;-49
2024/04/24 03:31:56;;;;;;;4.70;2.38;;;23.20;99.90;;;;;;5409763;26;20468;-49
2024/04/24 03:34:23;;;;;;;5.28;2.30;;;23.20;99.90;;;;;;5381676;26;20000;-50
2024/04/24 03:36:49;;;;;;;4.70;2.45;;;23.20;99.90;;;;;;5381765;26;19996;-50
2024/04/24 03:39:15;;;;;;;4.95;2.50;;;23.10;99.90;;;;;;5382210;26;20129;-50
2024/04/24 03:41:40;;;;;;;5.28;2.63;;;23.20;99.90;;;;;;5382056;26;20440;-50
2024/04/24 03:44:06;;;;;;;3.38;2.05;;;23.10;99.90;;;;;;5381614;26;19996;-50
2024/04/24 03:46:32;;;;;;;4.57;2.05;;;23.10;99.90;;;;;;5381650;26;20069;-50
2024/04/24 03:48:58;;;;;;;3.17;2.30;;;23.10;99.90;;;;;;5381406;26;20016;-51
2024/04/24 03:51:24;;;;;;;2.92;2.35;;;23.10;99.90;;;;;;5381658;26;19996;-50
2024/04/24 03:53:50;;;;;;;4.93;2.30;;;23.10;99.90;;;;;;5379710;26;19997;-49
2024/04/24 03:56:16;;;;;;;6.50;2.65;;;23.10;99.90;;;;;;5409561;26;20010;-49
2024/04/24 03:58:42;;;;;;;4.38;2.70;;;23.10;99.90;;;;;;5381483;26;20032;-50
2024/04/24 04:01:08;;;;;;;3.90;2.03;;;23.10;99.90;;;;;;5381248;26;20069;-49
2024/04/24 04:03:33;;;;;;;4.78;2.53;;;23.10;99.90;;;;;;5381545;26;19996;-50
2024/04/24 04:05:59;;;;;;;3.60;2.22;;;23.10;99.90;;;;;;5381205;26;20007;-50
2024/04/24 04:08:25;;;;;;;3.20;2.25;;;23.10;99.90;;;;;;5381366;26;20444;-51
2024/04/24 04:10:51;;;;;;;3.20;2.05;;;23.10;99.90;;;;;;5381345;26;20011;-50
2024/04/24 04:13:17;;;;;;;5.07;2.45;;;23.00;99.90;;;;;;5409022;26;20340;-51
2024/04/24 04:15:43;;;;;;;4.97;2.20;;;23.10;99.90;;;;;;5381663;26;20000;-51
2024/04/24 04:18:09;;;;;;;3.88;2.30;;;23.00;99.90;;;;;;5381094;26;20012;-52
2024/04/24 04:20:34;;;;;;;3.72;2.72;;;23.00;99.90;;;;;;5381269;26;20006;-51
2024/04/24 04:23:00;;;;;;;2.63;1.88;;;23.00;99.90;;;;;;5381195;26;20000;-50
2024/04/24 04:25:27;;;;;;;4.55;2.35;;;23.00;99.90;;;;;;5379219;26;20010;-51
2024/04/24 04:27:53;;;;;;;3.05;2.35;;;23.00;99.90;;;;;;5381014;26;19997;-51
2024/04/24 04:30:19;;;;;;;5.68;2.83;;;23.00;99.90;;;;;;5381248;26;20077;-50
2024/04/24 04:32:45;;;;;;;4.57;2.70;;;23.00;99.90;;;;;;5353037;26;20001;-50
2024/04/24 04:35:11;;;;;;;3.38;2.78;;;23.00;99.90;;;;;;5359099;26;20012;-50
2024/04/24 04:37:36;;;;;;;3.95;2.50;;;23.00;99.90;;;;;;5380135;26;20517;-51
2024/04/24 04:40:03;;;;;;;4.85;2.80;;;23.00;99.90;;;;;;5378532;26;20502;-52
2024/04/24 04:42:29;;;;;;;4.30;2.47;;;23.00;99.90;;;;;;5376984;26;20089;-53
2024/04/24 04:44:57;;;;;;;3.58;2.10;;;23.00;99.90;;;;;;5377155;26;20074;-51
2024/04/24 04:47:22;;;;;;;3.50;2.50;;;22.90;99.90;;;;;;5377259;26;19996;-51
2024/04/24 04:49:48;;;;;;;4.65;2.60;;;23.00;99.90;;;;;;5377309;26;20062;-51
2024/04/24 04:52:14;;;;;;;5.75;2.95;;;23.00;99.90;;;;;;5376910;26;20008;-51
2024/04/24 04:54:40;;;;;;;6.45;3.08;;;23.00;99.90;;;;;;5375450;26;20007;-50
2024/04/24 04:57:06;;;;;;;5.22;2.40;;;22.90;99.90;;;;;;5377673;26;20004;-50
2024/04/24 04:59:32;;;;;;;8.07;2.90;;;22.90;99.90;;;;;;5380459;26;20007;-50
2024/04/24 05:01:58;;;;;;;4.88;2.65;;;22.90;99.90;;;;;;5363271;26;20008;-50
2024/04/24 05:04:23;;;;;;;4.32;2.58;;;22.90;99.90;;;;;;5369282;26;20068;-51
2024/04/24 05:06:49;;;;;;;4.65;2.78;;;22.90;99.90;;;;;;5341983;26;20003;-51
2024/04/24 05:09:15;;;;;;;3.92;2.45;;;22.90;99.90;;;;;;5341777;26;20334;-51
2024/04/24 05:11:45;;;;;;;3.42;2.10;;;22.90;99.90;;;;;;5341914;26;20507;-52
2024/04/24 05:14:12;;;;;;;6.20;2.80;;;22.90;99.90;;;;;;5341576;26;20566;-51
2024/04/24 05:16:38;;;;;;;5.55;2.22;;;22.90;99.90;;;;;;5341976;26;20400;-50
2024/04/24 05:19:04;;;;;;;5.25;2.83;;;22.90;99.90;;;;;;5344394;26;20067;-50
2024/04/24 05:21:29;;;;;;;4.85;2.40;;;22.90;99.90;;;;;;5345369;26;19997;-50
2024/04/24 05:23:55;;;;;;;5.38;2.60;;;22.90;99.90;;;;;;5346159;26;19993;-50
2024/04/24 05:29:10;;;;;;;4.93;2.53;;;22.90;99.90;;;;;;5348309;26;20011;-51
2024/04/24 05:31:38;;;;;;;4.95;2.40;;;22.90;99.90;;;;;;5348308;26;20033;-51
2024/04/24 05:34:04;;;;;;;4.63;2.97;;;22.90;99.90;;;;;;5348205;26;19997;-52
2024/04/24 05:36:30;;;;;;;5.35;2.15;;;22.80;99.90;;;;;;5348212;26;19996;-51
2024/04/24 05:38:56;;;;;;;4.20;2.30;;;22.80;99.90;;;;;;5375749;26;20359;-50
2024/04/24 05:41:22;;;;;;;3.45;2.20;;;22.80;99.90;;;;;;5348825;26;20000;-51
2024/04/24 05:43:48;;;;;;;4.90;2.35;;;22.80;99.90;;;;;;5348190;26;20051;-53
2024/04/24 05:46:13;;;;;;;7.25;2.22;;;22.80;99.90;;;;;;5348144;26;20074;-52
2024/04/24 05:48:39;;;;;;;4.40;2.38;;;22.80;99.90;;;;;;5348093;26;20435;-51
2024/04/24 05:51:05;;;;;;;3.50;2.30;;;22.80;99.90;;;;;;5348175;26;20000;-51
2024/04/24 05:53:31;;;;;;;3.78;2.20;;;22.80;99.90;;;;;;5348158;26;19997;-51
2024/04/24 05:55:57;;;;;;;4.32;2.30;;;22.80;99.90;;;;;;5348260;26;20015;-52
2024/04/24 05:58:23;;;;;;;3.33;1.85;;;22.80;99.90;;;;;;5348444;26;20445;-50
2024/04/24 06:00:49;;;;;;;3.15;2.08;;;22.80;99.90;;;;;;5347852;26;20004;-51
2024/04/24 06:03:14;;;;;;;4.88;2.15;;;22.80;99.90;;;;;;5348107;26;20001;-51
2024/04/24 06:05:40;;;;;;;4.13;2.08;;;22.80;99.90;;;;;;5348087;26;19997;-51
2024/04/24 06:08:06;;;;;;;3.17;1.98;;;22.80;99.90;;;;;;5347862;26;20479;-51
2024/04/24 06:10:32;;;;;;;3.83;2.35;;;22.80;99.90;;;;;;5347812;26;20329;-52
2024/04/24 06:12:58;;;;;;;3.47;1.70;;;22.80;99.90;;;;;;5347775;26;20009;-52
2024/04/24 06:15:24;;;;;;;4.28;1.98;;;22.80;99.90;;;;;;5348315;26;20009;-50
2024/04/24 06:17:49;;;;;;;3.50;1.98;;;22.80;99.90;;;;;;5347926;26;20440;-50
2024/04/24 06:20:16;;;;;;;3.80;2.25;;;22.80;99.90;;;;;;5347593;26;20162;-50
2024/04/24 06:22:43;;;;;;;6.75;2.58;;;22.80;99.90;;;;;;5347771;26;20025;-49
2024/04/24 06:25:09;;;;;;;4.60;1.77;;;22.80;99.90;;;;;;5347643;26;20000;-48
2024/04/24 06:27:35;;;;;;;4.55;1.88;;;22.80;99.90;;;;;;5374899;26;20009;-49
2024/04/24 06:30:01;;;;;;;3.40;2.25;;;22.80;99.90;;;;;;5347664;26;20001;-49
2024/04/24 06:32:26;;;;;;;3.35;1.95;;;22.80;99.90;;;;;;5345878;26;20009;-50
2024/04/24 06:34:52;;;;;;;4.20;1.92;;;22.80;99.90;;;;;;5346751;26;20000;-51
2024/04/24 06:37:19;;;;;;;3.45;2.10;;;22.80;99.90;;;;;;5346798;26;20515;-50
2024/04/24 06:39:45;;;;;;;3.30;1.70;;;22.80;99.90;;;;;;5345843;26;20452;-50
2024/04/24 06:42:11;;;;;;;3.38;1.88;;;22.80;99.90;;;;;;5347503;26;20001;-50
2024/04/24 06:44:37;;;;;;;3.22;2.00;;;22.80;99.90;;;;;;5347303;26;20007;-50
2024/04/24 06:47:03;;;;;;;4.03;1.75;;;22.80;99.90;;;;;;5347274;26;20001;-50
2024/04/24 06:49:30;;;;;;;3.67;2.00;;;22.80;99.90;;;;;;5347349;26;20005;-50
2024/04/24 06:51:55;;;;;;;5.47;1.90;;;22.80;99.90;;;;;;5347626;26;20012;-50
2024/04/24 06:54:21;;;;;;;5.45;2.03;;;22.80;99.90;;;;;;5345477;26;20392;-50
2024/04/24 06:56:47;;;;;;;4.43;1.77;;;22.80;99.90;;;;;;5374446;26;20069;-49
2024/04/24 06:59:13;;;;;;;3.95;2.00;;;22.80;99.90;;;;;;5347267;26;20434;-49
2024/04/24 07:01:38;;;;;;;5.38;2.17;;;22.80;99.90;;;;;;5346749;26;19997;-50
2024/04/24 07:04:04;;;;;;;3.90;2.15;;;22.80;99.90;;;;;;5346955;26;19997;-50
2024/04/24 07:06:30;;;;;;;4.38;2.30;;;22.80;99.90;;;;;;5347079;26;20088;-49
2024/04/24 07:08:56;;;;;;;3.15;1.60;;;22.80;99.90;;;;;;5347183;26;20000;-50
2024/04/24 07:11:22;;;;;;;2.55;1.98;;;22.80;99.90;;;;;;5346890;26;20000;-51
2024/04/24 07:13:47;;;;;;;2.33;1.73;;;22.80;99.90;;;;;;5374337;26;20071;-51
2024/04/24 07:16:13;;;;;;;3.58;1.77;;;22.80;99.90;;;;;;5347042;26;19996;-51
2024/04/24 07:18:39;;;;;;;3.60;2.25;;;22.90;99.90;;;;;;5374250;26;20000;-50
2024/04/24 07:21:05;;;;;;;4.88;2.08;;;22.80;99.90;;;;;;5346984;26;20011;-51
2024/04/24 07:23:31;;;;;;;3.08;2.10;;;22.80;99.90;;;;;;5346785;26;19997;-49
2024/04/24 07:25:57;;;;;;;3.33;2.03;;;22.80;99.90;;;;;;5374475;26;20007;-51
2024/04/24 07:28:22;;;;;;;4.75;2.17;;;22.80;99.90;;;;;;5346820;26;20009;-50
2024/04/24 07:30:48;;;;;;;4.25;2.28;;;22.80;99.90;;;;;;5374123;26;20011;-50
2024/04/24 07:33:15;;;;;;;4.43;1.95;;;22.90;99.90;;;;;;5346781;26;20048;-50
2024/04/24 07:35:40;;;;;;;4.05;2.47;;;22.80;99.90;;;;;;5346784;26;20456;-50
2024/04/24 07:38:06;;;;;;;4.35;2.08;;;22.90;99.90;;;;;;5374140;26;19997;-50
2024/04/24 07:40:32;;;;;;;5.10;2.53;;;22.80;99.90;;;;;;5346635;26;19997;-51
2024/04/24 07:42:58;;;;;;;10.57;3.08;;;22.90;99.90;;;;;;5374317;26;20000;-52
2024/04/24 07:45:24;;;;;;;5.80;2.78;;;22.90;99.90;;;;;;5346548;26;19997;-51
2024/04/24 07:47:50;;;;;;;6.00;1.95;;;22.90;99.90;;;;;;5345937;26;20001;-52
2024/04/24 07:50:15;;;;;;;4.03;2.55;;;22.90;99.90;;;;;;5346428;26;19997;-50
2024/04/24 07:52:41;;;;;;;3.25;2.30;;;22.90;99.90;;;;;;5346418;26;19996;-50
2024/04/24 07:55:07;;;;;;;5.05;2.72;;;22.90;99.90;;;;;;5346605;26;20000;-50
2024/04/24 07:57:33;;;;;;;3.83;2.30;;;22.90;99.90;;;;;;5346648;26;19997;-49
2024/04/24 07:59:59;;;;;;;3.70;2.67;;;22.90;99.90;;;;;;5346560;26;20074;-49
2024/04/24 08:02:24;;;;;;;4.65;2.30;;;22.90;99.90;;;;;;5348448;26;20015;-50
2024/04/24 08:04:50;;;;;;;6.70;2.33;;;22.90;99.90;;;;;;5351829;26;19997;-49
2024/04/24 08:07:16;;;;;;;4.85;2.65;;;22.90;99.90;;;;;;5355497;26;20013;-50
2024/04/24 08:09:43;;;;;;;5.25;2.10;;;22.90;99.90;;;;;;5378004;26;20004;-50
2024/04/24 08:12:09;;;;;;;3.97;2.58;;;22.90;99.90;;;;;;5377176;26;20000;-50
2024/04/24 08:14:35;;;;;;;7.47;3.10;;;22.90;99.90;;;;;;5377345;26;20316;-50
2024/04/24 08:17:00;;;;;;;4.32;2.53;;;22.90;99.90;;;;;;5377891;26;20395;-50
2024/04/24 08:19:26;;;;;;;5.15;3.28;;;22.90;99.90;;;;;;5377566;26;19996;-50
2024/04/24 08:21:53;;;;;;;5.40;2.55;;;22.90;99.90;;;;;;5377578;26;19992;-50
2024/04/24 08:24:18;;;;;;;6.35;2.88;;;22.90;99.90;;;;;;5377696;26;20032;-50
2024/04/24 08:26:44;;;;;;;5.20;2.65;;;22.90;99.90;;;;;;5377763;26;20061;-50
2024/04/24 08:29:10;;;;;;;5.93;3.03;;;22.90;99.90;;;;;;5381257;26;19996;-51
2024/04/24 08:31:36;;;;;;;5.78;3.53;;;22.90;99.90;;;;;;5380765;26;20436;-51
2024/04/24 08:34:01;;;;;;;4.90;2.70;;;22.90;99.90;;;;;;5379327;26;20003;-52
2024/04/24 08:36:27;;;;;;;4.50;3.20;;;22.90;99.90;;;;;;5380832;26;20031;-51
2024/04/24 08:38:54;;;;;;;4.43;2.92;;;22.90;99.90;;;;;;5380844;26;20004;-50
2024/04/24 08:41:20;;;;;;;9.18;3.58;;;22.90;99.90;;;;;;5380923;26;20007;-50
2024/04/24 08:43:48;;;;;;;5.20;2.90;;;22.90;99.90;;;;;;5380749;26;20008;-51
2024/04/24 08:46:15;;;;;;;6.28;3.58;;;22.90;99.90;;;;;;5380703;26;20407;-51
2024/04/24 08:48:42;;;;;;;7.88;3.47;;;22.90;99.90;;;;;;5380502;26;20005;-51
2024/04/24 08:51:10;;;;;;;6.93;3.10;;;22.90;99.90;;;;;;5378665;26;19996;-50
2024/04/24 08:53:37;;;;;;;5.97;3.45;;;22.90;99.90;;;;;;5380601;26;19996;-52
2024/04/24 08:56:04;;;;;;;6.97;3.33;;;22.90;99.90;;;;;;5380801;26;19993;-51
2024/04/24 08:58:35;;;;;;;8.15;3.58;;;22.90;99.90;;;;;;5380864;26;19992;-51
2024/04/24 09:01:04;;;;;;;4.97;3.13;;;23.00;99.90;;;;;;5383935;26;19996;-51
2024/04/24 09:03:39;;;;;;;5.35;3.50;;;22.90;99.90;;;;;;5383904;26;20007;-50
2024/04/24 09:06:10;;;;;;;8.50;3.22;;;22.90;99.90;;;;;;5384019;26;20332;-51
2024/04/24 09:08:37;;;;;;;5.78;2.85;;;22.90;99.90;;;;;;5384257;26;19996;-50
2024/04/24 09:11:03;;;;;;;6.10;3.13;;;23.00;99.90;;;;;;5384071;26;20069;-50
2024/04/24 09:13:29;;;;;;;4.32;2.65;;;23.00;99.90;;;;;;5383272;26;20008;-50
2024/04/24 09:15:59;;;;;;;4.82;3.20;;;22.90;99.90;;;;;;5383605;26;20074;-51
2024/04/24 09:18:25;;;;;;;6.60;3.45;;;23.00;99.90;;;;;;5383602;26;20000;-51
2024/04/24 09:20:52;;;;;;;6.00;3.08;;;23.00;99.90;;;;;;5383478;26;20333;-51
2024/04/24 09:23:24;;;;;;;7.25;3.38;;;23.00;99.90;;;;;;5383479;26;20004;-50
2024/04/24 09:25:50;;;;;;;4.28;2.95;;;23.00;99.90;;;;;;5411010;26;20001;-50
2024/04/24 09:28:17;;;;;;;6.70;3.38;;;23.00;99.90;;;;;;5383294;26;20004;-51
2024/04/24 09:30:44;;;;;;;7.10;3.65;;;23.00;99.90;;;;;;5383158;26;19996;-51
2024/04/24 09:33:11;;;;;;;6.82;4.35;;;23.00;99.90;;;;;;5383156;26;20004;-51
2024/04/24 09:35:37;;;;;;;;;;;23.00;99.90;;;;;;5384105;26;20446;-51
2024/04/24 09:38:05;;;;;;;7.07;4.45;;;23.00;99.90;;;;;;5383376;26;20261;-51
2024/04/24 09:40:32;;;;;;;5.80;4.32;;;23.00;99.90;;;;;;5383358;26;19996;-51
2024/04/24 09:42:58;;;;;;;8.07;4.50;;;23.00;99.90;;;;;;5383256;26;19996;-51
2024/04/24 09:45:27;;;;;;;10.27;5.07;;;23.00;99.90;;;;;;5383113;26;19992;-51
2024/04/24 09:47:53;;;;;;;9.60;4.82;;;23.00;99.90;;;;;;5381366;26;20417;-51
2024/04/24 09:50:19;;;;;;;8.88;5.20;;;23.00;99.90;;;;;;5383123;26;20003;-53
2024/04/24 09:52:49;;;;;;;9.82;5.10;;;23.00;99.90;;;;;;5383222;26;20007;-52
2024/04/24 09:55:15;;;;;;;11.07;6.13;;;23.00;99.90;;;;;;5383243;26;20007;-51
2024/04/24 09:57:45;;;;;;;10.43;5.30;;;23.00;99.90;;;;;;5382990;26;20009;-52
2024/04/24 10:00:12;;;;;;;8.18;5.07;;;23.00;99.90;;;;;;5383005;26;19996;-51
2024/04/24 10:02:48;;;;;;;8.60;5.38;;;23.00;99.90;;;;;;5335249;26;1286348;-51
2024/04/24 10:05:34;;;;;;;7.70;4.93;;;23.00;99.90;;;;;;5383029;26;20012;-50
2024/04/24 10:08:05;;;;;;;8.65;4.63;;;23.00;99.90;;;;;;5381049;26;20435;-50
2024/04/24 10:10:53;;;;;;;7.03;4.72;;;23.00;99.90;;;;;;5383120;26;20007;-52
2024/04/24 10:13:19;;;;;;;6.97;4.70;;;23.10;99.90;;;;;;5382576;26;19996;-51
2024/04/24 10:15:58;;;;;;;9.40;5.53;;;23.10;99.90;;;;;;5382605;26;20000;-51
2024/04/24 10:18:26;;;;;;;11.40;5.90;;;23.10;99.90;;;;;;5382840;26;20069;-51
2024/04/24 10:20:54;;;;;;;7.15;5.07;;;23.10;99.90;;;;;;5382774;26;20447;-52
2024/04/24 10:23:20;;;;;;;8.27;5.15;;;23.10;99.90;;;;;;5382645;26;20398;-51
2024/04/24 10:25:47;;;;;;;8.90;6.00;;;23.10;99.90;;;;;;5382641;26;20305;-51
2024/04/24 10:28:14;;;;;;;9.97;5.13;;;23.10;99.90;;;;;;5382444;26;20473;-52
2024/04/24 10:30:41;;;;;;;9.05;5.57;;;23.10;99.90;;;;;;5383170;26;20000;-52
2024/04/24 10:33:08;;;;;;;7.40;4.85;;;23.10;99.90;;;;;;5382561;26;20321;-52
2024/04/24 10:35:35;;;;;;;8.73;5.65;;;23.20;99.90;;;;;;5382483;26;20456;-52
2024/04/24 10:38:05;;;;;;;9.38;5.93;;;23.20;99.90;;;;;;5380492;26;20073;-52
2024/04/24 10:40:32;;;;;;;7.72;5.45;;;23.20;99.90;;;;;;5382417;26;20024;-52
2024/04/24 10:42:59;;;;;;;9.68;5.30;;;23.20;99.90;;;;;;5382143;26;20000;-52
2024/04/24 10:45:28;;;;;;;8.95;5.70;;;23.20;99.90;;;;;;5382008;26;19996;-52
2024/04/24 10:47:56;;;;;;;8.38;5.63;;;23.20;99.90;;;;;;5382359;26;20069;-52
2024/04/24 10:50:26;;;;;;;8.13;5.60;;;23.20;99.90;;;;;;5382150;26;20072;-51
2024/04/24 10:52:53;;;;;;;8.07;5.13;;;23.20;99.90;;;;;;5380160;26;19996;-50
2024/04/24 10:55:19;;;;;;;9.80;5.20;;;23.30;99.90;;;;;;5381949;26;20000;-51
2024/04/24 10:57:52;;;;;;;6.65;5.10;;;23.30;99.90;;;;;;5382084;26;20015;-52
2024/04/24 11:00:19;;;;;;;7.80;5.43;;;23.30;99.90;;;;;;5382225;26;20012;-52
2024/04/24 11:02:46;;;;;;;9.55;5.93;;;23.30;99.90;;;;;;5381944;26;20000;-51
2024/04/24 11:05:13;;;;;;;10.77;5.43;;;23.30;99.90;;;;;;5380415;26;20000;-52
2024/04/24 11:07:40;;;;;;;6.95;5.03;;;23.30;99.90;;;;;;5382465;26;20011;-51
2024/04/24 11:10:07;;;;;;;10.33;6.10;;;23.30;99.90;;;;;;5382208;26;20011;-52
2024/04/24 11:12:40;;;;;;;8.57;5.25;;;23.30;99.90;;;;;;5382047;26;20011;-52
2024/04/24 11:15:07;;;;;;;8.35;5.15;;;23.30;99.90;;;;;;5381830;26;20346;-52
2024/04/24 11:17:33;;;;;;;6.85;4.80;;;23.30;99.90;;;;;;5409296;26;20000;-50
2024/04/24 11:19:59;;;;;;;9.48;5.53;;;23.40;99.90;;;;;;5381456;26;20007;-51
2024/04/24 11:22:29;;;;;;;8.80;4.82;;;23.40;99.90;;;;;;5380587;26;20008;-51
2024/04/24 11:24:55;;;;;;;8.88;5.15;;;23.40;99.90;;;;;;5381749;26;20029;-51
2024/04/24 11:27:24;;;;;;;6.22;4.50;;;23.40;99.90;;;;;;5381499;26;20007;-52
2024/04/24 11:29:52;;;;;;;8.63;5.18;;;23.40;99.90;;;;;;5381472;26;20343;-52
2024/04/24 11:32:20;;;;;;;7.20;4.45;;;23.40;99.90;;;;;;5379306;26;20050;-52
2024/04/24 11:34:47;;;;;;;6.97;4.57;;;23.40;99.90;;;;;;5365212;26;20001;-52
2024/04/24 11:37:13;;;;;;;;;;;23.40;99.90;;;;;;5371754;26;20019;-52
2024/04/24 11:39:39;;;;;;;8.52;5.00;;;23.50;99.90;;;;;;5381382;26;19926;-52
2024/04/24 11:42:06;;;;;;;8.10;4.32;;;23.50;99.90;;;;;;5408001;26;20004;-51
2024/04/24 11:44:33;;;;;;;5.50;3.67;;;23.50;99.90;;;;;;5377952;26;20003;-51
2024/04/24 11:46:59;;;;;;;7.03;4.30;;;23.50;99.90;;;;;;5377820;26;20542;-52
2024/04/24 11:49:25;;;;;;;6.63;4.40;;;23.50;99.90;;;;;;5405678;26;19992;-52
2024/04/24 11:51:55;;;;;;;8.02;4.50;;;23.50;99.90;;;;;;5376260;26;20336;-52
2024/04/24 11:54:20;;;;;;;8.45;4.22;;;23.60;99.90;;;;;;5377900;26;19996;-52
2024/04/24 11:56:49;;;;;;;8.70;4.43;;;23.60;99.90;;;;;;5405589;26;20328;-52
2024/04/24 11:59:15;;;;;;;8.73;4.68;;;23.60;99.90;;;;;;5381400;26;20000;-52
2024/04/24 12:01:41;;;;;;;7.10;3.92;;;23.60;99.90;;;;;;5381350;26;20444;-52
2024/04/24 12:04:08;;;;;;;6.63;4.53;;;23.60;99.90;;;;;;5381233;26;20000;-52
2024/04/24 12:06:41;;;;;;;5.68;3.90;;;23.60;99.90;;;;;;5380835;26;19996;-52
2024/04/24 12:09:10;;;;;;;6.63;3.97;;;23.60;99.90;;;;;;5381009;26;20002;-52
2024/04/24 12:11:43;;;;;;;5.05;3.33;;;23.70;99.90;;;;;;5381199;26;20282;-52
2024/04/24 12:14:13;;;;;;;6.00;3.80;;;23.70;99.90;;;;;;5380990;26;19996;-52
2024/04/24 12:16:40;;;;;;;7.30;4.05;;;23.70;99.90;;;;;;5381271;26;20007;-52
2024/04/24 12:19:05;;;;;;;5.80;3.53;;;23.70;99.90;;;;;;5381381;26;20007;-52
2024/04/24 12:21:31;;;;;;;5.18;3.47;;;23.70;99.90;;;;;;5380970;26;20016;-52
2024/04/24 12:23:57;;;;;;;7.05;3.30;;;23.70;99.90;;;;;;5381063;26;20001;-51
2024/04/24 12:26:23;;;;;;;4.82;3.10;;;23.70;99.90;;;;;;5380677;26;20029;-52
2024/04/24 12:28:48;;;;;;;8.90;3.55;;;23.80;99.90;;;;;;5381022;26;20007;-51
2024/04/24 12:31:14;;;;;;;6.15;3.15;;;23.80;99.90;;;;;;5381160;26;20008;-52
2024/04/24 12:33:41;;;;;;;4.75;3.40;;;23.80;99.90;;;;;;5381042;26;20020;-51
2024/04/24 12:36:07;;;;;;;7.05;3.60;;;23.80;99.90;;;;;;5380785;26;20000;-52
2024/04/24 12:38:34;;;;;;;5.03;3.00;;;23.80;99.90;;;;;;5380746;26;20004;-52
2024/04/24 12:40:59;;;;;;;5.55;3.53;;;23.80;99.90;;;;;;5380691;26;20000;-52
2024/04/24 12:43:25;;;;;;;5.85;3.10;;;23.80;99.90;;;;;;5380894;26;20000;-52
2024/04/24 12:45:51;;;;;;;5.90;2.92;;;23.80;99.90;;;;;;5380561;26;20069;-52
2024/04/24 12:48:17;;;;;;;5.47;3.30;;;23.90;99.90;;;;;;5380851;26;20004;-52